createdAt,value
2022-08-25T00:00:48.363Z,20.35
2022-08-25T00:01:57.156Z,20.35
2022-08-25T00:02:59.543Z,20.33
2022-08-25T00:04:06.076Z,20.33
2022-08-25T00:05:09.021Z,20.33
2022-08-25T00:06:14.727Z,20.35
2022-08-25T00:07:18.827Z,20.33
2022-08-25T00:08:20.764Z,20.32
2022-08-25T00:09:25.758Z,20.33
2022-08-25T00:10:28.669Z,20.32
2022-08-25T00:11:34.236Z,20.32
2022-08-25T00:12:36.280Z,20.31
2022-08-25T00:13:43.806Z,20.29
2022-08-25T00:14:46.873Z,20.27
2022-08-25T00:15:48.844Z,20.26
2022-08-25T00:16:52.407Z,20.26
2022-08-25T00:17:58.566Z,20.24
2022-08-25T00:19:05.319Z,20.23
2022-08-25T00:20:09.570Z,20.21
2022-08-25T00:21:14.079Z,20.19
2022-08-25T00:22:16.167Z,20.17
2022-08-25T00:23:19.665Z,20.17
2022-08-25T00:24:22.313Z,20.16
2022-08-25T00:25:25.734Z,20.16
2022-08-25T00:26:27.991Z,20.14
2022-08-25T00:27:30.947Z,20.15
2022-08-25T00:28:32.914Z,20.14
2022-08-25T00:29:38.404Z,20.14
2022-08-25T00:30:40.480Z,20.13
2022-08-25T00:31:44.401Z,20.14
2022-08-25T00:32:55.183Z,20.14
2022-08-25T00:34:01.318Z,20.14
2022-08-25T00:35:04.757Z,20.15
2022-08-25T00:36:07.908Z,20.15
2022-08-25T00:37:10.385Z,20.15
2022-08-25T00:38:14.068Z,20.14
2022-08-25T00:39:16.254Z,20.12
2022-08-25T00:40:21.236Z,20.12
2022-08-25T00:41:25.363Z,20.12
2022-08-25T00:42:28.570Z,20.11
2022-08-25T00:43:34.421Z,20.12
2022-08-25T00:44:38.685Z,20.10
2022-08-25T00:45:40.728Z,20.09
2022-08-25T00:46:46.410Z,20.08
2022-08-25T00:47:48.346Z,20.06
2022-08-25T00:48:54.987Z,20.05
2022-08-25T00:49:59.844Z,20.04
2022-08-25T00:51:04.369Z,20.05
2022-08-25T00:52:10.437Z,20.03
2022-08-25T00:53:13.450Z,20.02
2022-08-25T00:54:18.698Z,20.02
2022-08-25T00:55:24.638Z,20.03
2022-08-25T00:56:29.219Z,20.03
2022-08-25T00:57:35.742Z,20.02
2022-08-25T00:58:38.922Z,20.02
2022-08-25T00:59:44.646Z,20.02
2022-08-25T01:00:49.976Z,20.02
2022-08-25T01:01:54.170Z,20.01
2022-08-25T01:02:57.915Z,20.02
2022-08-25T01:04:01.244Z,20.02
2022-08-25T01:05:03.768Z,20.02
2022-08-25T01:06:10.285Z,20.00
2022-08-25T01:07:15.494Z,19.99
2022-08-25T01:08:27.627Z,19.97
2022-08-25T01:09:32.784Z,19.96
2022-08-25T01:10:38.444Z,19.95
2022-08-25T01:11:41.753Z,19.91
2022-08-25T01:12:44.869Z,19.90
2022-08-25T01:13:51.752Z,19.88
2022-08-25T01:14:57.558Z,19.87
2022-08-25T01:15:59.843Z,19.88
2022-08-25T01:17:02.822Z,19.87
2022-08-25T01:18:05.114Z,19.85
2022-08-25T01:19:09.706Z,19.85
2022-08-25T01:20:20.079Z,19.86
2022-08-25T01:21:26.854Z,19.86
2022-08-25T01:22:28.854Z,19.86
2022-08-25T01:23:32.105Z,19.85
2022-08-25T01:24:40.952Z,19.86
2022-08-25T01:25:50.174Z,19.86
2022-08-25T01:26:52.209Z,19.85
2022-08-25T01:27:55.156Z,19.86
2022-08-25T01:29:17.017Z,19.86
2022-08-25T01:30:20.412Z,19.84
2022-08-25T01:31:23.869Z,19.84
2022-08-25T01:32:27.714Z,19.83
2022-08-25T01:33:29.977Z,19.83
2022-08-25T01:34:35.878Z,19.83
2022-08-25T01:35:39.164Z,19.81
2022-08-25T01:36:45.186Z,19.81
2022-08-25T01:37:48.427Z,19.82
2022-08-25T01:38:51.556Z,19.81
2022-08-25T01:39:54.099Z,19.80
2022-08-25T01:40:57.197Z,19.79
2022-08-25T01:42:13.255Z,19.78
2022-08-25T01:43:27.715Z,19.77
2022-08-25T01:44:30.316Z,19.76
2022-08-25T01:45:33.387Z,19.75
2022-08-25T01:46:35.468Z,19.76
2022-08-25T01:47:38.744Z,19.74
2022-08-25T01:48:40.676Z,19.75
2022-08-25T01:49:43.949Z,19.74
2022-08-25T01:50:45.849Z,19.73
2022-08-25T01:51:54.411Z,19.72
2022-08-25T01:53:03.791Z,19.71
2022-08-25T01:54:05.834Z,19.69
2022-08-25T01:55:09.247Z,19.69
2022-08-25T01:56:13.841Z,19.68
2022-08-25T01:57:18.182Z,19.66
2022-08-25T01:58:21.039Z,19.65
2022-08-25T01:59:24.625Z,19.64
2022-08-25T02:00:26.562Z,19.63
2022-08-25T02:01:29.609Z,19.63
2022-08-25T02:02:31.752Z,19.62
2022-08-25T02:03:42.140Z,19.62
2022-08-25T02:04:45.450Z,19.61
2022-08-25T02:05:48.697Z,19.62
2022-08-25T02:06:53.648Z,19.61
2022-08-25T02:07:55.681Z,19.60
2022-08-25T02:09:01.048Z,19.61
2022-08-25T02:10:04.489Z,19.61
2022-08-25T02:11:07.552Z,19.60
2022-08-25T02:12:09.647Z,19.60
2022-08-25T02:13:13.261Z,19.60
2022-08-25T02:14:20.034Z,19.60
2022-08-25T02:15:22.403Z,19.59
2022-08-25T02:16:29.206Z,19.60
2022-08-25T02:17:31.321Z,19.59
2022-08-25T02:18:34.298Z,19.59
2022-08-25T02:19:36.341Z,19.58
2022-08-25T02:20:39.814Z,19.57
2022-08-25T02:21:42.029Z,19.57
2022-08-25T02:22:56.626Z,19.57
2022-08-25T02:24:00.408Z,19.57
2022-08-25T02:25:02.832Z,19.56
2022-08-25T02:26:06.049Z,19.54
2022-08-25T02:27:08.167Z,19.54
2022-08-25T02:28:11.597Z,19.54
2022-08-25T02:29:13.991Z,19.53
2022-08-25T02:30:18.429Z,19.53
2022-08-25T02:31:23.675Z,19.52
2022-08-25T02:32:27.761Z,19.50
2022-08-25T02:33:29.821Z,19.49
2022-08-25T02:34:32.883Z,19.49
2022-08-25T02:35:34.816Z,19.47
2022-08-25T02:36:38.217Z,19.46
2022-08-25T02:37:40.103Z,19.43
2022-08-25T02:38:45.932Z,19.42
2022-08-25T02:39:48.009Z,19.42
2022-08-25T02:40:52.365Z,19.40
2022-08-25T02:41:54.345Z,19.40
2022-08-25T02:42:58.252Z,19.38
2022-08-25T02:44:01.188Z,19.38
2022-08-25T02:45:05.150Z,19.37
2022-08-25T02:46:07.483Z,19.37
2022-08-25T02:47:10.704Z,19.36
2022-08-25T02:48:12.628Z,19.35
2022-08-25T02:49:15.586Z,19.36
2022-08-25T02:50:17.606Z,19.36
2022-08-25T02:51:21.957Z,19.35
2022-08-25T02:52:25.351Z,19.35
2022-08-25T02:53:29.474Z,19.35
2022-08-25T02:54:32.872Z,19.35
2022-08-25T02:55:35.893Z,19.34
2022-08-25T02:56:37.994Z,19.33
2022-08-25T02:57:42.007Z,19.32
2022-08-25T02:58:46.040Z,19.32
2022-08-25T02:59:49.304Z,19.31
2022-08-25T03:00:51.696Z,19.30
2022-08-25T03:01:54.641Z,19.29
2022-08-25T03:02:56.526Z,19.29
2022-08-25T03:04:00.000Z,19.28
2022-08-25T03:05:02.058Z,19.27
2022-08-25T03:06:05.379Z,19.27
2022-08-25T03:07:07.248Z,19.25
2022-08-25T03:08:11.255Z,19.24
2022-08-25T03:09:13.482Z,19.24
2022-08-25T03:10:19.712Z,19.24
2022-08-25T03:11:22.222Z,19.24
2022-08-25T03:12:25.169Z,19.26
2022-08-25T03:13:27.193Z,19.24
2022-08-25T03:14:30.461Z,19.24
2022-08-25T03:15:32.659Z,19.24
2022-08-25T03:16:35.998Z,19.24
2022-08-25T03:17:38.090Z,19.25
2022-08-25T03:18:43.122Z,19.24
2022-08-25T03:19:45.015Z,19.23
2022-08-25T03:20:47.948Z,19.23
2022-08-25T03:21:52.397Z,19.22
2022-08-25T03:22:55.311Z,19.21
2022-08-25T03:23:57.648Z,19.20
2022-08-25T03:25:24.199Z,19.22
2022-08-25T03:26:46.450Z,19.22
2022-08-25T03:27:49.606Z,19.21
2022-08-25T03:28:52.595Z,19.21
2022-08-25T03:29:56.075Z,19.20
2022-08-25T03:31:00.187Z,19.21
2022-08-25T03:32:02.516Z,19.20
2022-08-25T03:33:05.906Z,19.18
2022-08-25T03:34:07.957Z,19.18
2022-08-25T03:35:11.829Z,19.18
2022-08-25T03:36:14.858Z,19.19
2022-08-25T03:37:17.754Z,19.19
2022-08-25T03:38:19.791Z,19.18
2022-08-25T03:39:25.075Z,19.18
2022-08-25T03:40:27.685Z,19.18
2022-08-25T03:41:33.542Z,19.16
2022-08-25T03:42:35.564Z,19.15
2022-08-25T03:43:38.787Z,19.16
2022-08-25T03:44:40.718Z,19.16
2022-08-25T03:45:44.853Z,19.17
2022-08-25T03:46:51.543Z,19.18
2022-08-25T03:47:54.128Z,19.15
2022-08-25T03:48:58.037Z,19.15
2022-08-25T03:50:00.155Z,19.14
2022-08-25T03:51:03.155Z,19.12
2022-08-25T03:52:05.450Z,19.11
2022-08-25T03:53:08.511Z,19.10
2022-08-25T03:54:17.013Z,19.09
2022-08-25T03:55:20.213Z,19.08
2022-08-25T03:56:22.608Z,19.05
2022-08-25T03:57:28.821Z,19.05
2022-08-25T03:58:30.855Z,19.05
2022-08-25T03:59:35.652Z,19.03
2022-08-25T04:00:37.596Z,19.03
2022-08-25T04:01:44.812Z,19.02
2022-08-25T04:02:47.067Z,19.02
2022-08-25T04:03:50.530Z,19.02
2022-08-25T04:04:52.718Z,19.02
2022-08-25T04:06:02.479Z,19.01
2022-08-25T04:07:06.341Z,19.00
2022-08-25T04:08:09.901Z,19.00
2022-08-25T04:09:13.724Z,18.99
2022-08-25T04:10:15.715Z,18.98
2022-08-25T04:11:23.055Z,18.97
2022-08-25T04:12:27.027Z,18.97
2022-08-25T04:13:31.207Z,18.97
2022-08-25T04:14:33.207Z,18.98
2022-08-25T04:15:37.041Z,18.97
2022-08-25T04:16:39.221Z,18.98
2022-08-25T04:17:42.317Z,18.97
2022-08-25T04:18:45.467Z,18.97
2022-08-25T04:19:48.532Z,18.97
2022-08-25T04:20:51.998Z,18.97
2022-08-25T04:21:56.712Z,18.97
2022-08-25T04:23:01.338Z,18.96
2022-08-25T04:24:09.221Z,18.96
2022-08-25T04:25:12.263Z,18.96
2022-08-25T04:26:17.291Z,18.96
2022-08-25T04:27:20.414Z,18.96
2022-08-25T04:28:23.829Z,18.95
2022-08-25T04:29:27.990Z,18.95
2022-08-25T04:30:29.969Z,18.96
2022-08-25T04:31:34.205Z,18.95
2022-08-25T04:32:37.775Z,18.94
2022-08-25T04:33:42.073Z,18.94
2022-08-25T04:34:45.033Z,18.93
2022-08-25T04:35:49.526Z,18.91
2022-08-25T04:36:52.665Z,18.89
2022-08-25T04:37:55.737Z,18.88
2022-08-25T04:38:57.793Z,18.86
2022-08-25T04:40:00.711Z,18.86
2022-08-25T04:41:05.317Z,18.86
2022-08-25T04:42:08.831Z,18.86
2022-08-25T04:43:10.856Z,18.85
2022-08-25T04:44:15.134Z,18.86
2022-08-25T04:45:17.445Z,18.85
2022-08-25T04:46:22.401Z,18.85
2022-08-25T04:47:26.392Z,18.85
2022-08-25T04:48:31.189Z,18.86
2022-08-25T04:49:33.099Z,18.85
2022-08-25T04:50:39.608Z,18.87
2022-08-25T04:51:42.288Z,18.87
2022-08-25T04:52:45.280Z,18.88
2022-08-25T04:53:47.474Z,18.87
2022-08-25T04:54:50.314Z,18.86
2022-08-25T04:55:52.163Z,18.85
2022-08-25T04:56:58.601Z,18.84
2022-08-25T04:58:00.918Z,18.85
2022-08-25T04:59:06.116Z,18.84
2022-08-25T05:00:12.693Z,18.83
2022-08-25T05:01:19.933Z,18.84
2022-08-25T05:02:23.604Z,18.83
2022-08-25T05:03:25.534Z,18.84
2022-08-25T05:04:29.168Z,18.86
2022-08-25T05:05:32.008Z,18.89
2022-08-25T05:06:37.645Z,18.93
2022-08-25T05:07:40.929Z,18.95
2022-08-25T05:08:42.950Z,18.98
2022-08-25T05:09:48.888Z,19.01
2022-08-25T05:10:51.105Z,19.04
2022-08-25T05:11:54.786Z,19.07
2022-08-25T05:12:57.837Z,19.10
2022-08-25T05:14:02.104Z,19.13
2022-08-25T05:15:25.829Z,19.15
2022-08-25T05:16:29.485Z,19.18
2022-08-25T05:17:32.505Z,19.19
2022-08-25T05:18:35.743Z,19.18
2022-08-25T05:19:38.641Z,19.16
2022-08-25T05:20:40.515Z,19.20
2022-08-25T05:21:43.688Z,19.21
2022-08-25T05:22:48.007Z,19.25
2022-08-25T05:23:50.456Z,19.28
2022-08-25T05:24:53.382Z,19.33
2022-08-25T05:25:55.299Z,19.38
2022-08-25T05:26:58.803Z,19.42
2022-08-25T05:28:00.877Z,19.47
2022-08-25T05:29:06.103Z,19.53
2022-08-25T05:30:09.547Z,19.58
2022-08-25T05:31:15.671Z,19.63
2022-08-25T05:32:18.994Z,19.68
2022-08-25T05:33:21.853Z,19.72
2022-08-25T05:34:24.830Z,19.76
2022-08-25T05:35:27.698Z,19.81
2022-08-25T05:36:29.679Z,19.85
2022-08-25T05:37:32.847Z,19.89
2022-08-25T05:38:36.324Z,19.92
2022-08-25T05:39:39.203Z,19.97
2022-08-25T05:40:41.118Z,20.01
2022-08-25T05:41:44.117Z,20.03
2022-08-25T05:42:46.247Z,20.08
2022-08-25T05:43:50.719Z,20.11
2022-08-25T05:44:52.801Z,20.13
2022-08-25T05:45:56.159Z,20.17
2022-08-25T05:46:59.033Z,20.21
2022-08-25T05:48:03.114Z,20.24
2022-08-25T05:49:06.927Z,20.26
2022-08-25T05:50:10.101Z,20.29
2022-08-25T05:51:14.933Z,20.31
2022-08-25T05:52:20.037Z,20.35
2022-08-25T05:53:24.271Z,20.39
2022-08-25T05:54:26.427Z,20.41
2022-08-25T05:55:29.380Z,20.44
2022-08-25T05:56:32.383Z,20.46
2022-08-25T05:57:35.402Z,20.50
2022-08-25T05:58:39.248Z,20.51
2022-08-25T05:59:42.230Z,20.53
2022-08-25T06:00:44.544Z,20.56
2022-08-25T06:02:04.744Z,20.59
2022-08-25T06:03:09.041Z,20.62
2022-08-25T06:04:11.023Z,20.65
2022-08-25T06:05:16.519Z,20.67
2022-08-25T06:06:18.535Z,20.72
2022-08-25T06:07:21.395Z,20.74
2022-08-25T06:08:24.123Z,20.78
2022-08-25T06:09:27.646Z,20.79
2022-08-25T06:10:30.566Z,20.83
2022-08-25T06:11:32.507Z,20.85
2022-08-25T06:12:36.731Z,20.87
2022-08-25T06:13:39.152Z,20.90
2022-08-25T06:14:42.338Z,20.91
2022-08-25T06:15:44.215Z,20.94
2022-08-25T06:16:51.505Z,21.01
2022-08-25T06:18:01.790Z,21.02
2022-08-25T06:19:08.194Z,21.04
2022-08-25T06:20:13.880Z,21.09
2022-08-25T06:21:16.887Z,21.10
2022-08-25T06:22:19.821Z,21.12
2022-08-25T06:23:21.817Z,21.15
2022-08-25T06:24:26.023Z,21.17
2022-08-25T06:25:32.599Z,21.20
2022-08-25T06:26:35.114Z,21.20
2022-08-25T06:27:38.812Z,21.23
2022-08-25T06:28:40.852Z,21.24
2022-08-25T06:29:44.002Z,21.26
2022-08-25T06:30:46.623Z,21.27
2022-08-25T06:31:50.290Z,21.29
2022-08-25T06:32:52.553Z,21.28
2022-08-25T06:33:55.468Z,21.28
2022-08-25T06:34:59.101Z,21.29
2022-08-25T06:36:02.397Z,21.32
2022-08-25T06:37:05.450Z,21.32
2022-08-25T06:38:07.527Z,21.32
2022-08-25T06:39:11.622Z,21.34
2022-08-25T06:40:14.328Z,21.37
2022-08-25T06:41:17.613Z,21.40
2022-08-25T06:42:19.907Z,21.46
2022-08-25T06:43:23.449Z,21.48
2022-08-25T06:44:27.466Z,21.50
2022-08-25T06:45:30.360Z,21.53
2022-08-25T06:46:36.271Z,21.55
2022-08-25T06:47:39.808Z,21.57
2022-08-25T06:48:42.096Z,21.58
2022-08-25T06:49:45.151Z,21.58
2022-08-25T06:50:48.440Z,21.57
2022-08-25T06:51:51.399Z,21.57
2022-08-25T06:52:58.104Z,21.57
2022-08-25T06:54:09.723Z,21.57
2022-08-25T06:55:12.684Z,21.58
2022-08-25T06:56:15.052Z,21.60
2022-08-25T06:57:17.978Z,21.61
2022-08-25T06:58:19.904Z,21.63
2022-08-25T06:59:22.881Z,21.65
2022-08-25T07:00:30.409Z,21.66
2022-08-25T07:01:35.259Z,21.67
2022-08-25T07:02:38.657Z,21.68
2022-08-25T07:03:41.974Z,21.69
2022-08-25T07:04:45.290Z,21.70
2022-08-25T07:05:54.223Z,21.73
2022-08-25T07:06:57.173Z,21.74
2022-08-25T07:07:59.239Z,21.73
2022-08-25T07:09:02.607Z,21.68
2022-08-25T07:10:06.445Z,21.64
2022-08-25T07:11:16.100Z,21.61
2022-08-25T07:12:19.435Z,21.64
2022-08-25T07:13:22.319Z,21.63
2022-08-25T07:14:25.304Z,21.64
2022-08-25T07:15:28.220Z,21.64
2022-08-25T07:16:31.487Z,21.60
2022-08-25T07:17:34.456Z,21.57
2022-08-25T07:18:36.377Z,21.57
2022-08-25T07:19:39.287Z,21.58
2022-08-25T07:20:42.997Z,21.62
2022-08-25T07:21:48.531Z,21.64
2022-08-25T07:22:51.242Z,21.66
2022-08-25T07:23:54.349Z,21.68
2022-08-25T07:24:56.256Z,21.71
2022-08-25T07:26:15.692Z,21.74
2022-08-25T07:27:30.032Z,21.74
2022-08-25T07:28:32.575Z,21.77
2022-08-25T07:29:42.751Z,21.79
2022-08-25T07:30:44.874Z,21.80
2022-08-25T07:31:54.746Z,21.79
2022-08-25T07:32:57.154Z,21.79
2022-08-25T07:34:17.479Z,21.77
2022-08-25T07:35:24.071Z,21.78
2022-08-25T07:36:26.280Z,21.81
2022-08-25T07:37:48.076Z,21.82
2022-08-25T07:38:50.697Z,21.86
2022-08-25T07:39:54.546Z,21.88
2022-08-25T07:41:03.132Z,21.88
2022-08-25T07:42:11.982Z,21.90
2022-08-25T07:43:15.135Z,21.91
2022-08-25T07:44:17.126Z,21.91
2022-08-25T07:45:25.393Z,21.92
2022-08-25T07:46:28.260Z,21.92
2022-08-25T07:47:32.208Z,21.94
2022-08-25T07:48:35.267Z,21.94
2022-08-25T07:51:03.289Z,21.92
2022-08-25T07:52:07.554Z,21.93
2022-08-25T07:53:14.385Z,21.95
2022-08-25T07:54:17.203Z,21.96
2022-08-25T07:55:20.762Z,21.95
2022-08-25T07:56:22.799Z,21.96
2022-08-25T07:57:28.249Z,21.98
2022-08-25T07:58:31.133Z,21.99
2022-08-25T07:59:39.237Z,21.99
2022-08-25T08:00:42.690Z,22.00
2022-08-25T08:01:45.140Z,22.02
2022-08-25T08:02:48.377Z,22.05
2022-08-25T08:03:51.690Z,22.04
2022-08-25T08:04:55.100Z,22.02
2022-08-25T08:05:57.112Z,22.02
2022-08-25T08:07:00.030Z,22.02
2022-08-25T08:08:03.597Z,22.02
2022-08-25T08:09:07.012Z,22.02
2022-08-25T08:10:42.167Z,22.03
2022-08-25T08:11:45.138Z,22.05
2022-08-25T08:12:54.098Z,22.06
2022-08-25T08:13:58.013Z,22.07
2022-08-25T08:15:01.313Z,22.09
2022-08-25T08:16:08.315Z,22.11
2022-08-25T08:17:12.083Z,22.12
2022-08-25T08:18:15.822Z,22.15
2022-08-25T08:19:18.904Z,22.17
2022-08-25T08:20:27.020Z,22.19
2022-08-25T08:21:31.082Z,22.18
2022-08-25T08:22:34.009Z,22.20
2022-08-25T08:23:36.357Z,22.21
2022-08-25T08:24:51.180Z,22.23
2022-08-25T08:25:58.164Z,22.25
2022-08-25T08:27:00.043Z,22.25
2022-08-25T08:28:03.342Z,22.27
2022-08-25T08:29:06.365Z,22.28
2022-08-25T08:30:09.508Z,22.28
2022-08-25T08:31:13.162Z,22.29
2022-08-25T08:32:15.154Z,22.29
2022-08-25T08:33:18.012Z,22.30
2022-08-25T08:34:19.975Z,22.31
2022-08-25T08:35:27.897Z,22.32
2022-08-25T08:36:31.647Z,22.34
2022-08-25T08:37:33.982Z,22.35
2022-08-25T08:38:38.056Z,22.35
2022-08-25T08:39:43.802Z,22.35
2022-08-25T08:41:15.454Z,22.37
2022-08-25T08:42:35.334Z,22.35
2022-08-25T08:43:39.473Z,22.39
2022-08-25T08:45:02.787Z,22.39
2022-08-25T08:46:05.227Z,22.41
2022-08-25T08:47:22.497Z,22.41
2022-08-25T08:48:40.049Z,22.39
2022-08-25T08:49:53.746Z,22.38
2022-08-25T08:51:10.043Z,22.39
2022-08-25T08:52:16.231Z,22.42
2022-08-25T08:53:25.976Z,22.45
2022-08-25T08:54:34.171Z,22.42
2022-08-25T08:55:44.414Z,22.40
2022-08-25T08:56:55.915Z,22.39
2022-08-25T08:58:01.597Z,22.41
2022-08-25T08:59:07.203Z,22.42
2022-08-25T09:00:10.867Z,22.44
2022-08-25T09:01:17.343Z,22.45
2022-08-25T09:02:49.948Z,22.48
2022-08-25T09:03:56.611Z,22.48
2022-08-25T09:05:03.265Z,22.50
2022-08-25T09:06:11.661Z,22.51
2022-08-25T09:07:19.097Z,22.51
2022-08-25T09:08:23.669Z,22.52
2022-08-25T09:09:35.692Z,22.53
2022-08-25T09:10:51.893Z,22.54
2022-08-25T09:12:10.384Z,22.57
2022-08-25T09:13:26.116Z,22.58
2022-08-25T09:14:44.093Z,22.60
2022-08-25T09:16:33.976Z,22.58
2022-08-25T09:18:06.867Z,22.61
2022-08-25T09:19:29.708Z,22.61
2022-08-25T09:20:51.907Z,22.62
2022-08-25T09:21:58.114Z,22.62
2022-08-25T09:23:07.979Z,22.64
2022-08-25T09:25:04.337Z,22.63
2022-08-25T09:26:28.415Z,22.63
2022-08-25T09:27:40.975Z,22.62
2022-08-25T09:28:51.256Z,22.63
2022-08-25T09:30:05.358Z,22.65
2022-08-25T09:31:18.724Z,22.67
2022-08-25T09:32:24.078Z,22.69
2022-08-25T09:33:29.215Z,22.69
2022-08-25T09:34:35.598Z,22.71
2022-08-25T09:35:40.687Z,22.71
2022-08-25T09:36:45.381Z,22.71
2022-08-25T09:37:58.482Z,22.72
2022-08-25T09:39:01.762Z,22.75
2022-08-25T09:40:06.830Z,22.78
2022-08-25T09:41:11.249Z,22.78
2022-08-25T09:42:15.601Z,22.76
2022-08-25T09:43:33.120Z,22.76
2022-08-25T09:44:43.480Z,22.77
2022-08-25T09:45:48.683Z,22.75
2022-08-25T09:47:04.580Z,22.76
2022-08-25T09:48:22.059Z,22.78
2022-08-25T09:49:33.613Z,22.81
2022-08-25T09:50:35.844Z,22.81
2022-08-25T09:51:43.151Z,22.83
2022-08-25T09:52:45.878Z,22.84
2022-08-25T09:53:54.761Z,22.85
2022-08-25T09:54:59.450Z,22.83
2022-08-25T09:56:05.903Z,22.84
2022-08-25T09:57:08.771Z,22.85
2022-08-25T09:58:20.610Z,22.85
2022-08-25T09:59:34.472Z,22.88
2022-08-25T10:00:38.531Z,22.87
2022-08-25T10:01:50.083Z,22.87
2022-08-25T10:03:07.133Z,22.87
2022-08-25T10:04:17.701Z,22.88
2022-08-25T10:05:24.644Z,22.89
2022-08-25T10:06:30.315Z,22.88
2022-08-25T10:07:37.498Z,22.90
2022-08-25T10:08:52.666Z,22.89
2022-08-25T10:09:58.414Z,22.91
2022-08-25T10:11:02.199Z,22.92
2022-08-25T10:12:18.145Z,22.92
2022-08-25T10:13:37.965Z,22.91
2022-08-25T10:14:44.305Z,22.90
2022-08-25T10:15:48.502Z,22.90
2022-08-25T10:16:53.405Z,22.92
2022-08-25T10:17:56.813Z,22.89
2022-08-25T10:19:04.916Z,22.91
2022-08-25T10:20:18.196Z,22.90
2022-08-25T10:21:20.236Z,22.93
2022-08-25T10:22:26.810Z,22.94
2022-08-25T10:23:30.820Z,22.94
2022-08-25T10:24:34.049Z,22.96
2022-08-25T10:25:58.024Z,22.96
2022-08-25T10:27:19.401Z,22.96
2022-08-25T10:28:33.553Z,23.04
2022-08-25T10:30:02.872Z,23.03
2022-08-25T10:31:13.832Z,23.05
2022-08-25T10:32:25.285Z,23.08
2022-08-25T10:33:37.384Z,23.07
2022-08-25T10:34:51.610Z,23.07
2022-08-25T10:36:02.266Z,23.08
2022-08-25T10:37:16.247Z,23.09
2022-08-25T10:38:36.972Z,23.11
2022-08-25T10:39:42.804Z,23.12
2022-08-25T10:40:51.220Z,23.13
2022-08-25T10:42:01.811Z,23.13
2022-08-25T10:43:08.566Z,23.11
2022-08-25T10:44:48.496Z,23.09
2022-08-25T10:45:57.730Z,23.07
2022-08-25T10:47:17.857Z,23.05
2022-08-25T10:48:44.158Z,23.07
2022-08-25T10:49:50.419Z,23.10
2022-08-25T10:50:57.699Z,23.13
2022-08-25T10:52:05.336Z,23.13
2022-08-25T10:53:23.534Z,23.12
2022-08-25T10:54:44.179Z,23.12
2022-08-25T10:56:00.575Z,23.12
2022-08-25T10:57:11.103Z,23.18
2022-08-25T10:58:24.473Z,23.20
2022-08-25T11:00:01.588Z,23.18
2022-08-25T11:01:10.519Z,23.20
2022-08-25T11:02:45.012Z,23.21
2022-08-25T11:03:54.014Z,23.24
2022-08-25T11:05:01.597Z,23.28
2022-08-25T11:06:08.261Z,23.32
2022-08-25T11:07:20.691Z,23.31
2022-08-25T11:08:33.561Z,23.31
2022-08-25T11:09:40.191Z,23.32
2022-08-25T11:10:48.481Z,23.32
2022-08-25T11:11:58.354Z,23.31
2022-08-25T11:13:11.325Z,23.31
2022-08-25T11:14:21.366Z,23.34
2022-08-25T11:15:28.591Z,23.34
2022-08-25T11:16:39.600Z,23.34
2022-08-25T11:17:50.281Z,23.34
2022-08-25T11:18:59.233Z,23.35
2022-08-25T11:20:10.315Z,23.37
2022-08-25T11:21:23.600Z,23.37
2022-08-25T11:22:31.072Z,23.36
2022-08-25T11:23:38.464Z,23.43
2022-08-25T11:24:49.503Z,23.43
2022-08-25T11:25:53.702Z,23.44
2022-08-25T11:26:58.375Z,23.44
2022-08-25T11:28:06.520Z,23.45
2022-08-25T11:29:15.937Z,23.49
2022-08-25T11:30:19.670Z,23.52
2022-08-25T11:31:25.840Z,23.57
2022-08-25T11:32:33.342Z,23.57
2022-08-25T11:33:36.504Z,23.56
2022-08-25T11:34:43.727Z,23.55
2022-08-25T11:35:51.245Z,23.53
2022-08-25T11:37:00.959Z,23.52
2022-08-25T11:38:18.793Z,23.51
2022-08-25T11:39:38.280Z,23.56
2022-08-25T11:40:57.730Z,23.56
2022-08-25T11:42:12.531Z,23.58
2022-08-25T11:43:35.761Z,23.60
2022-08-25T11:44:53.361Z,23.62
2022-08-25T11:46:10.598Z,23.63
2022-08-25T11:47:38.769Z,23.63
2022-08-25T11:48:51.982Z,23.66
2022-08-25T11:50:00.901Z,23.71
2022-08-25T11:51:07.662Z,23.70
2022-08-25T11:52:42.673Z,23.76
2022-08-25T11:53:46.387Z,23.81
2022-08-25T11:54:48.544Z,23.79
2022-08-25T11:55:53.979Z,23.76
2022-08-25T11:57:02.193Z,23.73
2022-08-25T11:58:38.794Z,23.70
2022-08-25T12:00:12.494Z,23.69
2022-08-25T12:01:53.328Z,23.70
2022-08-25T12:03:01.385Z,23.71
2022-08-25T12:04:15.173Z,23.73
2022-08-25T12:05:53.768Z,23.74
2022-08-25T12:07:23.960Z,23.73
2022-08-25T12:08:49.667Z,23.70
2022-08-25T12:10:18.657Z,23.68
2022-08-25T12:11:57.987Z,23.73
2022-08-25T12:13:24.493Z,23.78
2022-08-25T12:14:45.477Z,23.81
2022-08-25T12:16:01.570Z,23.78
2022-08-25T12:17:19.699Z,23.79
2022-08-25T12:18:45.769Z,23.77
2022-08-25T12:19:53.620Z,23.77
2022-08-25T12:21:16.199Z,23.79
2022-08-25T12:22:44.301Z,23.79
2022-08-25T12:24:09.440Z,23.78
2022-08-25T12:25:29.686Z,23.85
2022-08-25T12:26:46.035Z,23.91
2022-08-25T12:28:02.326Z,23.97
2022-08-25T12:29:17.157Z,24.04
2022-08-25T12:30:29.127Z,24.04
2022-08-25T12:31:53.810Z,24.00
2022-08-25T12:33:09.073Z,24.00
2022-08-25T12:34:33.016Z,23.95
2022-08-25T12:35:41.051Z,23.91
2022-08-25T12:36:57.170Z,23.88
2022-08-25T12:38:06.723Z,23.87
2022-08-25T12:39:24.658Z,23.86
2022-08-25T12:40:31.822Z,23.90
2022-08-25T12:41:35.564Z,23.89
2022-08-25T12:42:40.718Z,23.89
2022-08-25T12:43:46.244Z,23.95
2022-08-25T12:45:11.059Z,24.02
2022-08-25T12:46:38.150Z,24.06
2022-08-25T12:47:44.741Z,24.07
2022-08-25T12:49:12.141Z,24.11
2022-08-25T12:50:35.449Z,24.07
2022-08-25T12:51:54.782Z,24.06
2022-08-25T12:53:11.271Z,24.02
2022-08-25T12:54:22.551Z,24.02
2022-08-25T12:55:28.577Z,24.07
2022-08-25T12:56:35.540Z,24.14
2022-08-25T12:57:44.880Z,24.17
2022-08-25T12:59:00.059Z,24.15
2022-08-25T13:00:13.197Z,24.13
2022-08-25T13:01:36.139Z,24.14
2022-08-25T13:03:05.366Z,24.13
2022-08-25T13:04:25.919Z,24.10
2022-08-25T13:06:08.164Z,24.18
2022-08-25T13:07:24.695Z,24.17
2022-08-25T13:08:51.618Z,24.23
2022-08-25T13:10:23.715Z,24.22
2022-08-25T13:11:35.327Z,24.18
2022-08-25T13:12:45.243Z,24.14
2022-08-25T13:13:54.379Z,24.12
2022-08-25T13:14:58.925Z,24.08
2022-08-25T13:16:04.865Z,24.06
2022-08-25T13:17:09.539Z,24.05
2022-08-25T13:18:30.932Z,24.06
2022-08-25T13:19:36.647Z,24.14
2022-08-25T13:20:38.634Z,24.17
2022-08-25T13:21:44.814Z,24.17
2022-08-25T13:22:54.015Z,24.21
2022-08-25T13:24:05.249Z,24.25
2022-08-25T13:25:16.492Z,24.31
2022-08-25T13:26:24.705Z,24.39
2022-08-25T13:27:28.334Z,24.38
2022-08-25T13:28:35.036Z,24.35
2022-08-25T13:29:51.517Z,24.35
2022-08-25T13:31:02.792Z,24.25
2022-08-25T13:32:09.358Z,24.24
2022-08-25T13:33:21.794Z,24.25
2022-08-25T13:34:34.346Z,24.24
2022-08-25T13:35:37.162Z,24.22
2022-08-25T13:37:04.949Z,24.17
2022-08-25T13:38:15.511Z,24.06
2022-08-25T13:39:45.679Z,24.07
2022-08-25T13:40:44.608Z,24.08
2022-08-25T13:41:49.583Z,24.12
2022-08-25T13:43:02.761Z,24.20
2022-08-25T13:44:04.944Z,24.24
2022-08-25T13:45:09.791Z,24.24
2022-08-25T13:46:11.754Z,24.23
2022-08-25T13:47:17.644Z,24.24
2022-08-25T13:48:35.123Z,24.23
2022-08-25T13:49:38.083Z,24.24
2022-08-25T13:50:43.730Z,24.23
2022-08-25T13:51:56.628Z,24.21
2022-08-25T13:53:02.794Z,24.19
2022-08-25T13:54:08.531Z,24.23
2022-08-25T13:55:11.879Z,24.22
2022-08-25T13:56:25.003Z,24.22
2022-08-25T13:57:31.572Z,24.20
2022-08-25T13:58:44.589Z,24.20
2022-08-25T13:59:52.685Z,24.21
2022-08-25T14:01:19.963Z,24.21
2022-08-25T14:02:44.331Z,24.24
2022-08-25T14:03:47.487Z,24.25
2022-08-25T14:04:52.823Z,24.23
2022-08-25T14:06:06.378Z,24.24
2022-08-25T14:07:19.454Z,24.29
2022-08-25T14:08:32.860Z,24.29
2022-08-25T14:09:40.622Z,24.28
2022-08-25T14:10:45.909Z,24.32
2022-08-25T14:11:56.594Z,24.41
2022-08-25T14:13:10.528Z,24.43
2022-08-25T14:14:30.948Z,24.41
2022-08-25T14:15:34.251Z,24.39
2022-08-25T14:16:43.505Z,24.34
2022-08-25T14:17:49.912Z,24.34
2022-08-25T14:18:54.919Z,24.33
2022-08-25T14:20:01.990Z,24.33
2022-08-25T14:21:11.307Z,24.31
2022-08-25T14:22:15.400Z,24.31
2022-08-25T14:23:20.960Z,24.28
2022-08-25T14:24:24.917Z,24.26
2022-08-25T14:25:30.339Z,24.24
2022-08-25T14:26:33.648Z,24.22
2022-08-25T14:27:38.941Z,24.23
2022-08-25T14:28:54.079Z,24.22
2022-08-25T14:29:57.111Z,24.20
2022-08-25T14:31:02.292Z,24.19